createdAt,value
2023-04-28T00:00:36.630Z,13.50
2023-04-28T00:03:06.336Z,10.93
2023-04-28T00:05:33.619Z,9.65
2023-04-28T00:08:03.423Z,8.95
2023-04-28T00:10:31.336Z,15.20
2023-04-28T00:13:00.776Z,13.38
2023-04-28T00:15:29.880Z,11.93
2023-04-28T00:17:56.659Z,13.48
2023-04-28T00:20:23.862Z,11.25
2023-04-28T00:22:53.186Z,13.40
2023-04-28T00:25:20.023Z,14.38
2023-04-28T00:27:49.213Z,10.25
2023-04-28T00:30:18.962Z,12.02
2023-04-28T00:32:47.927Z,12.35
2023-04-28T00:35:14.825Z,12.68
2023-04-28T00:37:42.073Z,15.23
2023-04-28T00:40:10.005Z,13.55
2023-04-28T00:42:36.760Z,11.32
2023-04-28T00:45:07.693Z,12.73
2023-04-28T00:47:35.397Z,15.65
2023-04-28T00:50:06.238Z,13.80
2023-04-28T00:52:33.076Z,13.55
2023-04-28T00:54:59.999Z,14.65
2023-04-28T00:57:27.209Z,14.02
2023-04-28T00:59:57.463Z,12.80
2023-04-28T01:02:24.921Z,13.13
2023-04-28T01:04:52.780Z,11.82
2023-04-28T01:07:19.569Z,11.52
2023-04-28T01:09:48.071Z,15.02
2023-04-28T01:12:15.383Z,13.15
2023-04-28T01:14:42.532Z,14.50
2023-04-28T01:17:10.706Z,13.82
2023-04-28T01:19:40.203Z,16.15
2023-04-28T01:22:07.058Z,13.35
2023-04-28T01:24:34.010Z,14.65
2023-04-28T01:27:01.048Z,12.93
2023-04-28T01:29:28.869Z,16.85
2023-04-28T01:31:57.969Z,10.90
2023-04-28T01:34:24.993Z,14.07
2023-04-28T01:36:52.137Z,15.00
2023-04-28T01:39:19.601Z,13.15
2023-04-28T01:41:46.743Z,13.13
2023-04-28T01:44:13.712Z,13.95
2023-04-28T01:46:40.751Z,16.58
2023-04-28T01:49:08.010Z,11.48
2023-04-28T01:51:38.084Z,11.18
2023-04-28T01:54:04.890Z,16.23
2023-04-28T01:56:33.803Z,13.27
2023-04-28T01:59:00.529Z,12.93
2023-04-28T02:01:27.245Z,12.50
2023-04-28T02:03:56.585Z,16.25
2023-04-28T02:06:23.748Z,13.70
2023-04-28T02:08:53.068Z,13.32
2023-04-28T02:11:22.062Z,17.52
2023-04-28T02:13:48.908Z,15.85
2023-04-28T02:16:16.237Z,15.43
2023-04-28T02:18:43.110Z,11.27
2023-04-28T02:21:13.738Z,16.50
2023-04-28T02:23:43.344Z,11.20
2023-04-28T02:26:13.367Z,14.65
2023-04-28T02:28:45.170Z,15.38
2023-04-28T02:31:13.999Z,12.02
2023-04-28T02:33:42.693Z,13.45
2023-04-28T02:36:12.710Z,11.10
2023-04-28T02:38:41.735Z,13.40
2023-04-28T02:41:11.844Z,15.25
2023-04-28T02:43:38.873Z,15.95
2023-04-28T02:46:06.005Z,19.38
2023-04-28T02:48:37.556Z,13.82
2023-04-28T02:51:04.444Z,15.25
2023-04-28T02:53:31.391Z,12.35
2023-04-28T02:55:58.450Z,15.57
2023-04-28T02:58:27.677Z,14.68
2023-04-28T03:00:57.008Z,17.55
2023-04-28T03:03:23.962Z,14.48
2023-04-28T03:05:53.602Z,18.70
2023-04-28T03:08:23.082Z,14.60
2023-04-28T03:10:50.060Z,17.77
2023-04-28T03:13:16.757Z,15.20
2023-04-28T03:15:43.977Z,15.95
2023-04-28T03:18:10.838Z,16.60
2023-04-28T03:20:37.679Z,15.13
2023-04-28T03:23:04.745Z,15.48
2023-04-28T03:25:31.724Z,13.93
2023-04-28T03:27:58.622Z,14.40
2023-04-28T03:30:25.399Z,18.67
2023-04-28T03:32:52.344Z,18.90
2023-04-28T03:35:19.137Z,13.88
2023-04-28T03:37:45.866Z,19.02
2023-04-28T03:40:12.938Z,14.85
2023-04-28T03:42:39.663Z,14.63
2023-04-28T03:45:07.180Z,16.70
2023-04-28T03:47:36.946Z,18.13
2023-04-28T03:50:03.986Z,15.57
2023-04-28T03:52:33.200Z,18.08
2023-04-28T03:54:59.896Z,13.82
2023-04-28T03:57:26.604Z,18.45
2023-04-28T03:59:53.345Z,16.92
2023-04-28T04:02:20.326Z,18.98
2023-04-28T04:04:47.405Z,17.65
2023-04-28T04:07:14.401Z,16.48
2023-04-28T04:09:41.957Z,15.55
2023-04-28T04:12:08.752Z,17.83
2023-04-28T04:14:35.445Z,17.13
2023-04-28T04:17:02.419Z,19.33
2023-04-28T04:19:29.372Z,17.10
2023-04-28T04:21:56.820Z,16.88
2023-04-28T04:24:23.665Z,18.50
2023-04-28T04:26:50.486Z,17.15
2023-04-28T04:29:17.204Z,17.77
2023-04-28T04:31:45.508Z,19.55
2023-04-28T04:34:12.478Z,18.10
2023-04-28T04:36:39.634Z,19.27
2023-04-28T04:39:06.717Z,18.13
2023-04-28T04:41:36.098Z,20.23
2023-04-28T04:44:02.951Z,18.88
2023-04-28T04:46:34.900Z,19.05
2023-04-28T04:49:01.942Z,19.27
2023-04-28T04:51:28.750Z,25.60
2023-04-28T04:53:55.750Z,20.90
2023-04-28T04:56:23.389Z,20.38
2023-04-28T04:58:52.592Z,21.85
2023-04-28T05:01:25.770Z,17.73
2023-04-28T05:03:53.058Z,21.17
2023-04-28T05:06:36.071Z,21.90
2023-04-28T05:09:03.334Z,19.88
2023-04-28T05:11:38.343Z,21.08
2023-04-28T05:14:09.987Z,22.70
2023-04-28T05:16:37.886Z,21.15
2023-04-28T05:19:05.454Z,24.05
2023-04-28T05:21:33.055Z,21.17
2023-04-28T05:24:03.124Z,26.25
2023-04-28T05:26:34.470Z,17.92
2023-04-28T05:29:01.376Z,21.48
2023-04-28T05:31:29.180Z,17.65
2023-04-28T05:33:56.351Z,21.30
2023-04-28T05:36:24.718Z,21.58
2023-04-28T05:38:51.933Z,18.20
2023-04-28T05:41:18.917Z,18.63
2023-04-28T05:43:51.595Z,22.27
2023-04-28T05:46:29.904Z,20.25
2023-04-28T05:49:03.886Z,20.73
2023-04-28T05:51:31.342Z,21.40
2023-04-28T05:53:58.686Z,21.17
2023-04-28T05:56:30.100Z,21.85
2023-04-28T05:58:59.132Z,18.48
2023-04-28T06:01:26.858Z,21.40
2023-04-28T06:03:56.320Z,20.25
2023-04-28T06:06:23.959Z,18.88
2023-04-28T06:08:50.984Z,21.63
2023-04-28T06:11:22.901Z,18.08
2023-04-28T06:13:52.586Z,18.60
2023-04-28T06:16:24.936Z,18.77
2023-04-28T06:18:51.949Z,18.38
2023-04-28T06:21:21.862Z,27.85
2023-04-28T06:24:03.204Z,19.83
2023-04-28T06:26:35.131Z,19.25
2023-04-28T06:29:02.723Z,18.23
2023-04-28T06:31:30.042Z,20.10
2023-04-28T06:33:57.288Z,21.85
2023-04-28T06:36:27.284Z,16.98
2023-04-28T06:38:58.182Z,19.00
2023-04-28T06:41:34.658Z,19.70
2023-04-28T06:44:01.749Z,18.90
2023-04-28T06:46:31.792Z,18.60
2023-04-28T06:48:59.808Z,21.20
2023-04-28T06:51:27.880Z,19.15
2023-04-28T06:53:55.080Z,21.13
2023-04-28T06:56:22.453Z,17.48
2023-04-28T06:58:49.935Z,21.13
2023-04-28T07:01:17.674Z,22.65
2023-04-28T07:03:47.266Z,22.65
2023-04-28T07:06:18.637Z,19.60
2023-04-28T07:08:45.463Z,19.73
2023-04-28T07:11:12.650Z,20.42
2023-04-28T07:13:39.783Z,19.35
2023-04-28T07:16:10.455Z,18.05
2023-04-28T07:18:38.370Z,19.08
2023-04-28T07:21:05.839Z,19.55
2023-04-28T07:23:36.495Z,21.30
2023-04-28T07:26:05.888Z,15.90
2023-04-28T07:28:32.856Z,17.83
2023-04-28T07:30:59.889Z,17.10
2023-04-28T07:33:26.846Z,19.27
2023-04-28T07:35:56.100Z,17.00
2023-04-28T07:38:23.201Z,15.98
2023-04-28T07:40:58.192Z,20.90
2023-04-28T07:43:28.192Z,17.48
2023-04-28T07:46:02.910Z,18.08
2023-04-28T07:48:36.045Z,17.38
2023-04-28T07:51:02.974Z,18.85
2023-04-28T07:53:29.888Z,16.10
2023-04-28T07:55:59.688Z,22.23
2023-04-28T07:58:29.186Z,16.42
2023-04-28T08:00:58.182Z,16.25
2023-04-28T08:03:25.045Z,17.17
2023-04-28T08:05:51.814Z,17.50
2023-04-28T08:08:18.702Z,18.85
2023-04-28T08:10:45.985Z,17.90
2023-04-28T08:13:12.961Z,20.02
2023-04-28T08:15:41.666Z,19.85
2023-04-28T08:18:08.620Z,16.20
2023-04-28T08:20:37.396Z,15.88
2023-04-28T08:23:04.004Z,20.27
2023-04-28T08:25:30.908Z,17.77
2023-04-28T08:27:57.890Z,16.25
2023-04-28T08:30:24.636Z,16.27
2023-04-28T08:32:51.394Z,14.30
2023-04-28T08:35:19.446Z,18.85
2023-04-28T08:37:46.544Z,15.52
2023-04-28T08:40:16.029Z,15.55
2023-04-28T08:42:45.973Z,15.13
2023-04-28T08:45:16.633Z,14.30
2023-04-28T08:47:50.152Z,17.02
2023-04-28T08:50:24.903Z,14.35
2023-04-28T08:52:53.755Z,18.67
2023-04-28T08:55:25.985Z,16.45
2023-04-28T08:57:55.160Z,19.38
2023-04-28T09:00:22.980Z,16.13
2023-04-28T09:02:51.607Z,20.23
2023-04-28T09:05:19.294Z,16.10
2023-04-28T09:07:49.305Z,14.98
2023-04-28T09:10:28.225Z,14.00
2023-04-28T09:12:58.749Z,14.50
2023-04-28T09:15:41.804Z,15.65
2023-04-28T09:18:09.934Z,17.15
2023-04-28T09:20:38.465Z,14.90
2023-04-28T09:23:18.733Z,14.63
2023-04-28T09:26:08.685Z,15.90
2023-04-28T09:28:36.809Z,14.93
2023-04-28T09:31:05.539Z,15.77
2023-04-28T09:33:33.262Z,12.85
2023-04-28T09:36:01.328Z,15.73
2023-04-28T09:38:28.770Z,15.85
2023-04-28T09:40:59.161Z,17.08
2023-04-28T09:43:34.612Z,19.67
2023-04-28T09:46:09.006Z,16.33
2023-04-28T09:48:38.669Z,18.02
2023-04-28T09:51:06.800Z,16.90
2023-04-28T09:53:34.372Z,18.15
2023-04-28T09:56:03.613Z,15.57
2023-04-28T09:58:32.251Z,17.60
2023-04-28T10:01:01.385Z,19.00
2023-04-28T10:03:31.265Z,18.65
2023-04-28T10:06:01.273Z,19.70
2023-04-28T10:08:30.160Z,16.55
2023-04-28T10:10:59.669Z,18.55
2023-04-28T10:13:29.439Z,19.02
2023-04-28T10:15:58.818Z,17.48
2023-04-28T10:18:25.906Z,17.45
2023-04-28T10:21:01.079Z,23.77
2023-04-28T10:23:52.902Z,24.88
2023-04-28T10:26:21.946Z,19.40
2023-04-28T10:28:51.073Z,21.20
2023-04-28T10:31:22.166Z,19.77
2023-04-28T10:33:52.339Z,25.30
2023-04-28T10:36:50.807Z,19.23
2023-04-28T10:39:17.496Z,17.65
2023-04-28T10:41:47.642Z,20.58
2023-04-28T10:44:33.094Z,20.20
2023-04-28T10:47:04.557Z,19.40
2023-04-28T10:49:57.664Z,16.98
2023-04-28T10:52:33.579Z,21.02
2023-04-28T10:55:28.991Z,19.02
2023-04-28T10:58:15.891Z,20.05
2023-04-28T11:00:48.207Z,19.52
2023-04-28T11:03:39.540Z,20.67
2023-04-28T11:06:32.564Z,20.83
2023-04-28T11:09:04.104Z,20.35
2023-04-28T11:11:33.541Z,19.55
2023-04-28T11:14:18.597Z,21.38
2023-04-28T11:16:54.203Z,21.60
2023-04-28T11:19:22.126Z,20.88
2023-04-28T11:21:52.387Z,20.35
2023-04-28T11:24:19.088Z,21.00
2023-04-28T11:26:48.866Z,19.35
2023-04-28T11:29:21.290Z,20.20
2023-04-28T11:31:53.950Z,20.92
2023-04-28T11:34:22.216Z,21.42
2023-04-28T11:36:54.897Z,21.00
2023-04-28T11:39:30.311Z,22.45
2023-04-28T11:41:58.361Z,24.08
2023-04-28T11:44:27.572Z,23.55
2023-04-28T11:46:57.364Z,25.02
2023-04-28T11:49:28.963Z,22.92
2023-04-28T11:51:56.329Z,20.17
2023-04-28T11:54:32.490Z,22.95
2023-04-28T11:57:01.166Z,16.85
2023-04-28T11:59:30.043Z,16.17
2023-04-28T12:01:59.412Z,15.77
2023-04-28T12:04:36.449Z,17.50
2023-04-28T12:07:14.384Z,14.85
2023-04-28T12:09:43.897Z,13.38
2023-04-28T12:12:12.954Z,13.70
2023-04-28T12:15:02.590Z,11.45
2023-04-28T12:17:43.188Z,11.02
2023-04-28T12:20:11.932Z,11.98
2023-04-28T12:22:47.013Z,10.45
2023-04-28T12:25:16.753Z,8.00
2023-04-28T12:28:00.634Z,9.25
2023-04-28T12:30:28.270Z,6.13
2023-04-28T12:32:56.136Z,5.03
2023-04-28T12:35:24.782Z,6.20
2023-04-28T12:37:58.622Z,5.32
2023-04-28T12:40:27.534Z,5.20
2023-04-28T12:42:54.201Z,4.80
2023-04-28T12:45:20.870Z,5.40
2023-04-28T12:47:49.904Z,5.97
2023-04-28T12:50:16.779Z,8.10
2023-04-28T12:52:43.668Z,7.78
2023-04-28T12:55:10.522Z,5.55
2023-04-28T12:57:39.466Z,4.65
2023-04-28T13:00:08.370Z,4.00
2023-04-28T13:02:35.313Z,4.18
2023-04-28T13:05:02.994Z,4.68
2023-04-28T13:07:30.569Z,4.68
2023-04-28T13:10:00.289Z,7.00
2023-04-28T13:12:33.496Z,6.03
2023-04-28T13:15:04.166Z,3.88
2023-04-28T13:17:31.557Z,4.47
2023-04-28T13:19:58.226Z,4.53
2023-04-28T13:22:27.271Z,5.28
2023-04-28T13:24:54.173Z,4.40
2023-04-28T13:27:23.339Z,5.47
2023-04-28T13:29:52.201Z,6.90
2023-04-28T13:32:18.896Z,4.57
2023-04-28T13:34:45.641Z,5.55
2023-04-28T13:37:15.217Z,5.60
2023-04-28T13:39:44.274Z,6.50
2023-04-28T13:42:13.282Z,6.65
2023-04-28T13:44:39.988Z,6.72
2023-04-28T13:47:09.213Z,5.53
2023-04-28T13:49:39.929Z,4.07
2023-04-28T13:52:08.857Z,5.22
2023-04-28T13:54:35.553Z,5.78
2023-04-28T13:57:03.075Z,5.18
2023-04-28T13:59:29.731Z,5.60
2023-04-28T14:01:56.340Z,5.22
2023-04-28T14:04:23.343Z,8.18
2023-04-28T14:06:50.631Z,5.88
2023-04-28T14:09:17.617Z,8.15
2023-04-28T14:11:47.689Z,6.10
2023-04-28T14:14:14.527Z,4.03
2023-04-28T14:16:44.103Z,5.25
2023-04-28T14:19:14.095Z,5.97
2023-04-28T14:21:42.644Z,5.10
2023-04-28T14:24:13.550Z,3.60
2023-04-28T14:26:40.528Z,2.63
2023-04-28T14:29:07.803Z,5.57
2023-04-28T14:31:34.779Z,3.55
2023-04-28T14:34:04.440Z,4.53
2023-04-28T14:36:33.887Z,3.40
2023-04-28T14:39:04.723Z,4.95
2023-04-28T14:41:39.194Z,5.22
2023-04-28T14:44:12.048Z,8.27
2023-04-28T14:46:40.826Z,9.35
2023-04-28T14:49:09.452Z,7.03
2023-04-28T14:51:37.497Z,6.30
2023-04-28T14:54:06.043Z,7.15
2023-04-28T14:56:33.947Z,7.75
2023-04-28T14:59:00.882Z,11.00
2023-04-28T15:01:28.302Z,12.07
2023-04-28T15:03:55.389Z,12.70
2023-04-28T15:06:24.702Z,11.38
2023-04-28T15:08:51.438Z,10.35
2023-04-28T15:11:18.795Z,12.00
2023-04-28T15:13:46.983Z,13.75
2023-04-28T15:16:13.714Z,11.90
2023-04-28T15:18:40.514Z,11.80
2023-04-28T15:21:08.839Z,12.85
2023-04-28T15:23:36.172Z,12.25
2023-04-28T15:26:05.040Z,11.55
2023-04-28T15:28:36.805Z,15.05
2023-04-28T15:31:06.398Z,10.55
2023-04-28T15:33:33.984Z,12.38
2023-04-28T15:36:02.065Z,10.35
2023-04-28T15:38:32.623Z,10.82
2023-04-28T15:41:03.488Z,16.00
2023-04-28T15:43:31.348Z,12.55
2023-04-28T15:46:01.675Z,12.95
2023-04-28T15:48:29.393Z,9.02
2023-04-28T15:50:56.968Z,10.18
2023-04-28T15:53:26.443Z,11.57
2023-04-28T15:55:54.202Z,10.93
2023-04-28T15:58:21.665Z,12.27
2023-04-28T16:00:48.492Z,12.65
2023-04-28T16:03:15.317Z,11.68
2023-04-28T16:05:43.404Z,19.00
2023-04-28T16:08:13.124Z,10.35
2023-04-28T16:10:43.047Z,9.60
2023-04-28T16:13:12.609Z,12.85
2023-04-28T16:15:43.213Z,10.40
2023-04-28T16:18:13.868Z,10.98
2023-04-28T16:20:40.646Z,10.65
2023-04-28T16:23:08.003Z,10.50
2023-04-28T16:25:36.396Z,10.63
2023-04-28T16:28:04.510Z,9.48
2023-04-28T16:30:33.286Z,10.00
2023-04-28T16:33:01.060Z,10.68
2023-04-28T16:35:31.547Z,11.23
2023-04-28T16:37:59.470Z,10.70
2023-04-28T16:40:29.428Z,13.82
2023-04-28T16:42:56.147Z,11.02
2023-04-28T16:45:23.638Z,10.20
2023-04-28T16:47:50.341Z,12.00
2023-04-28T16:50:18.358Z,12.55
2023-04-28T16:52:45.894Z,11.30
2023-04-28T16:55:15.364Z,12.95
2023-04-28T16:57:43.514Z,10.27
2023-04-28T17:00:11.976Z,13.00
2023-04-28T17:02:39.943Z,13.05
2023-04-28T17:05:07.470Z,10.48
2023-04-28T17:07:34.164Z,12.07
2023-04-28T17:10:02.900Z,12.13
2023-04-28T17:12:31.004Z,10.52
2023-04-28T17:15:03.270Z,14.45
2023-04-28T17:17:31.527Z,9.82
2023-04-28T17:20:01.893Z,11.32
2023-04-28T17:22:33.879Z,10.90
2023-04-28T17:25:01.844Z,12.57
2023-04-28T17:27:29.966Z,11.50
2023-04-28T17:29:56.766Z,13.23
2023-04-28T17:32:25.493Z,9.27
2023-04-28T17:34:53.747Z,8.18
2023-04-28T17:37:20.697Z,10.90
2023-04-28T17:39:50.182Z,5.60
2023-04-28T17:42:19.393Z,9.13
2023-04-28T17:44:46.029Z,7.13
2023-04-28T17:47:12.640Z,6.63
2023-04-28T17:49:41.970Z,6.43
2023-04-28T17:52:08.519Z,9.02
2023-04-28T17:54:35.308Z,9.82
2023-04-28T17:57:02.519Z,11.38
2023-04-28T17:59:29.133Z,7.82
2023-04-28T18:01:56.448Z,9.48
2023-04-28T18:04:26.372Z,5.93
2023-04-28T18:06:53.010Z,5.55
2023-04-28T18:09:19.536Z,5.45
2023-04-28T18:11:46.714Z,5.20
2023-04-28T18:14:15.466Z,4.10
2023-04-28T18:16:42.295Z,4.32
2023-04-28T18:19:08.953Z,5.15
2023-04-28T18:21:35.517Z,4.93
2023-04-28T18:24:02.318Z,5.68
2023-04-28T18:26:28.875Z,5.47
2023-04-28T18:28:55.626Z,6.35
2023-04-28T18:31:22.387Z,6.47
2023-04-28T18:33:52.674Z,5.25
2023-04-28T18:36:19.253Z,5.03
2023-04-28T18:38:46.075Z,4.78
2023-04-28T18:41:17.269Z,6.80
2023-04-28T18:43:44.305Z,6.85
2023-04-28T18:46:15.828Z,6.20
2023-04-28T18:48:44.795Z,6.93
2023-04-28T18:51:13.798Z,7.85
2023-04-28T18:53:40.643Z,9.27
2023-04-28T18:56:09.560Z,8.00
2023-04-28T18:58:40.893Z,11.95
2023-04-28T19:01:15.472Z,10.57
2023-04-28T19:03:45.057Z,13.07
2023-04-28T19:06:14.789Z,12.40
2023-04-28T19:08:42.846Z,11.23
2023-04-28T19:11:09.650Z,11.30
2023-04-28T19:13:37.779Z,11.02
2023-04-28T19:16:05.257Z,12.10
2023-04-28T19:18:37.108Z,12.60
2023-04-28T19:21:04.729Z,12.10
2023-04-28T19:23:34.700Z,13.35
2023-04-28T19:26:03.680Z,13.55
2023-04-28T19:28:30.793Z,14.85
2023-04-28T19:30:58.244Z,15.60
2023-04-28T19:33:28.559Z,9.68
2023-04-28T19:35:58.501Z,12.57
2023-04-28T19:38:25.243Z,8.57
2023-04-28T19:41:00.741Z,9.02
2023-04-28T19:43:30.772Z,10.98
2023-04-28T19:45:58.111Z,10.60
2023-04-28T19:48:27.381Z,13.88
2023-04-28T19:50:54.485Z,13.35
2023-04-28T19:53:24.218Z,17.88
2023-04-28T19:55:50.885Z,19.15
2023-04-28T19:58:18.382Z,18.73
2023-04-28T20:00:48.063Z,18.23
2023-04-28T20:03:14.966Z,22.77
2023-04-28T20:05:42.368Z,23.15
2023-04-28T20:08:11.184Z,24.30
2023-04-28T20:10:37.986Z,22.42
2023-04-28T20:13:07.035Z,27.95
2023-04-28T20:15:33.646Z,31.48
2023-04-28T20:18:00.516Z,29.65
2023-04-28T20:20:31.956Z,25.88
2023-04-28T20:23:00.858Z,35.60
2023-04-28T20:25:28.065Z,30.20
2023-04-28T20:27:54.694Z,35.58
2023-04-28T20:30:23.596Z,32.85
2023-04-28T20:32:50.395Z,34.92
2023-04-28T20:35:17.722Z,32.35
2023-04-28T20:37:44.368Z,33.33
2023-04-28T20:40:11.809Z,36.35
2023-04-28T20:42:38.536Z,32.63
2023-04-28T20:45:08.322Z,32.30
2023-04-28T20:47:36.496Z,38.03
2023-04-28T20:50:03.754Z,34.95
2023-04-28T20:52:33.080Z,39.00
2023-04-28T20:55:02.671Z,36.65
2023-04-28T20:57:29.697Z,37.28
2023-04-28T20:59:56.519Z,37.15
2023-04-28T21:02:23.551Z,37.35
2023-04-28T21:04:50.423Z,41.88
2023-04-28T21:07:17.751Z,40.72
2023-04-28T21:09:44.662Z,44.28
2023-04-28T21:12:11.673Z,46.15
2023-04-28T21:14:38.601Z,47.22
2023-04-28T21:17:05.391Z,39.67
2023-04-28T21:19:32.558Z,39.53
2023-04-28T21:21:59.676Z,43.08
2023-04-28T21:24:26.409Z,40.10
2023-04-28T21:26:59.850Z,36.97
2023-04-28T21:29:27.822Z,42.05
2023-04-28T21:31:57.136Z,36.10
2023-04-28T21:34:24.057Z,35.33
2023-04-28T21:36:53.092Z,33.22
2023-04-28T21:39:20.007Z,37.22
2023-04-28T21:41:46.906Z,40.50
2023-04-28T21:44:13.689Z,37.47
2023-04-28T21:46:47.817Z,37.28
2023-04-28T21:49:14.615Z,41.75
2023-04-28T21:51:46.076Z,42.88
2023-04-28T21:54:12.816Z,42.67
2023-04-28T21:56:39.689Z,44.00
2023-04-28T21:59:06.496Z,44.38
2023-04-28T22:01:33.379Z,40.55
2023-04-28T22:04:02.616Z,44.67
2023-04-28T22:06:31.546Z,43.70
2023-04-28T22:08:58.411Z,49.92
2023-04-28T22:11:25.541Z,52.22
2023-04-28T22:13:54.946Z,58.13
2023-04-28T22:16:22.229Z,52.88
2023-04-28T22:18:49.165Z,51.83
2023-04-28T22:21:16.138Z,56.00
2023-04-28T22:23:42.859Z,53.80
2023-04-28T22:26:09.749Z,54.78
2023-04-28T22:28:37.552Z,58.47
2023-04-28T22:31:04.356Z,53.22
2023-04-28T22:33:31.109Z,54.75
2023-04-28T22:35:58.123Z,56.67
2023-04-28T22:38:26.360Z,59.65
2023-04-28T22:40:53.378Z,58.63
2023-04-28T22:43:20.197Z,57.33
2023-04-28T22:45:47.030Z,59.63
2023-04-28T22:48:14.466Z,53.75
2023-04-28T22:50:41.556Z,53.25
2023-04-28T22:53:09.633Z,54.67
2023-04-28T22:55:38.909Z,52.65
2023-04-28T22:58:05.991Z,57.05
2023-04-28T23:00:33.176Z,53.22
2023-04-28T23:03:00.809Z,58.78
2023-04-28T23:05:27.731Z,51.03
2023-04-28T23:07:54.488Z,49.38
2023-04-28T23:10:23.728Z,42.97
2023-04-28T23:12:50.560Z,45.40
2023-04-28T23:15:17.509Z,42.70
2023-04-28T23:17:44.603Z,38.60
2023-04-28T23:20:12.054Z,41.10
2023-04-28T23:22:40.954Z,40.80
2023-04-28T23:25:10.569Z,38.60
2023-04-28T23:27:37.465Z,40.15
2023-04-28T23:30:04.689Z,38.72
2023-04-28T23:32:31.485Z,44.67
2023-04-28T23:35:01.166Z,39.28
2023-04-28T23:37:28.102Z,42.47
2023-04-28T23:39:54.916Z,40.05
2023-04-28T23:42:21.706Z,40.45
2023-04-28T23:44:52.915Z,38.58
2023-04-28T23:47:23.034Z,39.65
2023-04-28T23:49:52.848Z,35.58
2023-04-28T23:52:19.646Z,35.55
2023-04-28T23:54:46.583Z,31.98
2023-04-28T23:57:13.627Z,34.70
2023-04-28T23:59:40.474Z,28.42
